Time;durP1;ratioP1;P1;durP2;ratioP2;P2;SDS_P1;SDS_P2;PMS_P1;PMS_P2;Temp;Humidity;BMP_temperature;BMP_pressure;BME280_temperature;BME280_humidity;BME280_pressure;Samples;Min_cycle;Max_cycle;Signal;HPM_P1;HPM_P2
2024/04/05 00:00:39;;;;;;;1.55;0.90;;;9.40;99.90;;;;;;8342525;28;20048;-82
2024/04/05 00:04:39;;;;;;;1.60;0.80;;;9.30;99.90;;;;;;8362038;28;20112;-82
2024/04/05 00:08:41;;;;;;;3.30;1.23;;;9.40;99.90;;;;;;8362385;28;20084;-82
2024/04/05 00:12:41;;;;;;;1.50;1.00;;;9.60;99.90;;;;;;8359647;28;20028;-83
2024/04/05 00:16:42;;;;;;;4.63;1.33;;;9.60;99.90;;;;;;8360506;28;20029;-82
2024/04/05 00:20:42;;;;;;;3.67;1.05;;;9.60;99.90;;;;;;8357259;28;20055;-83
2024/04/05 00:24:43;;;;;;;2.17;0.95;;;9.50;99.90;;;;;;8371530;28;20037;-83
2024/04/05 00:28:43;;;;;;;1.00;0.77;;;9.50;99.90;;;;;;8364868;28;20492;-82
2024/04/05 00:32:44;;;;;;;1.83;1.05;;;9.40;99.90;;;;;;8368421;28;20028;-82
2024/04/05 00:36:45;;;;;;;1.92;0.90;;;9.30;99.90;;;;;;8363025;28;20040;-82
2024/04/05 00:40:46;;;;;;;2.08;1.10;;;9.30;99.90;;;;;;8362530;28;20036;-83
2024/04/05 00:44:46;;;;;;;2.72;1.42;;;9.40;99.90;;;;;;8360955;28;20032;-83
2024/04/05 00:48:47;;;;;;;1.85;1.13;;;9.50;99.90;;;;;;8362878;28;20032;-83
2024/04/05 00:52:47;;;;;;;1.90;1.02;;;9.50;99.90;;;;;;8371183;28;20029;-83
2024/04/05 00:56:48;;;;;;;1.85;1.40;;;9.50;99.90;;;;;;8357163;28;20416;-83
2024/04/05 01:00:49;;;;;;;1.60;1.20;;;9.50;99.90;;;;;;8360496;28;20028;-81
2024/04/05 01:04:49;;;;;;;1.83;1.00;;;9.50;99.90;;;;;;8375445;28;20515;-84
2024/04/05 01:08:50;;;;;;;1.02;0.90;;;9.50;99.90;;;;;;8375111;28;20024;-83
2024/04/05 01:13:05;;;;;;;2.35;1.20;;;9.50;99.90;;;;;;8353510;28;20033;-83
2024/04/05 01:17:05;;;;;;;2.35;1.10;;;9.50;99.90;;;;;;8357821;28;20056;-82
2024/04/05 01:21:06;;;;;;;1.40;1.00;;;9.60;99.90;;;;;;8362856;28;20017;-83
2024/04/05 01:25:06;;;;;;;1.65;1.10;;;9.60;99.90;;;;;;8364275;28;20074;-83
2024/04/05 01:29:07;;;;;;;3.40;1.40;;;9.50;99.90;;;;;;8365936;28;20390;-82
2024/04/05 01:33:07;;;;;;;3.08;1.85;;;9.50;99.90;;;;;;8358253;28;20551;-83
2024/04/05 01:37:09;;;;;;;3.03;1.50;;;9.30;99.90;;;;;;8360794;28;20021;-83
2024/04/05 01:41:10;;;;;;;2.60;1.38;;;9.20;99.90;;;;;;8362452;28;20025;-83
2024/04/05 01:45:10;;;;;;;2.53;1.42;;;9.30;99.90;;;;;;8355118;28;20401;-83
2024/04/05 01:49:11;;;;;;;3.38;1.17;;;9.20;99.90;;;;;;8355598;28;20024;-82
2024/04/05 01:53:11;;;;;;;2.90;1.40;;;9.20;99.90;;;;;;8359239;28;20028;-82
2024/04/05 01:57:12;;;;;;;1.80;1.13;;;9.30;99.90;;;;;;8359167;28;20367;-83
2024/04/05 02:01:12;;;;;;;1.40;1.17;;;9.30;99.90;;;;;;8356705;28;20028;-83
2024/04/05 02:05:13;;;;;;;1.77;1.30;;;9.30;99.90;;;;;;8361772;28;20021;-83
2024/04/05 02:09:13;;;;;;;4.05;1.42;;;9.30;99.90;;;;;;8353998;28;20031;-83
2024/04/05 02:13:14;;;;;;;1.83;1.13;;;9.20;99.90;;;;;;8355435;28;20090;-83
2024/04/05 02:17:14;;;;;;;4.68;1.92;;;9.20;99.90;;;;;;8361695;28;20024;-83
2024/04/05 02:21:15;;;;;;;12.02;4.15;;;9.10;99.90;;;;;;8352272;28;20750;-83
2024/04/05 02:25:15;;;;;;;11.23;3.13;;;9.10;99.90;;;;;;8365072;28;20025;-83
2024/04/05 02:29:16;;;;;;;6.18;2.00;;;9.10;99.90;;;;;;8358519;28;20029;-83
2024/04/05 02:33:17;;;;;;;4.50;2.20;;;9.10;99.90;;;;;;8353402;28;20115;-82
2024/04/05 02:37:17;;;;;;;5.50;2.00;;;9.10;99.90;;;;;;8351101;28;20108;-83
2024/04/05 02:41:18;;;;;;;3.80;2.05;;;9.10;99.90;;;;;;8360440;28;20040;-82
2024/04/05 02:45:18;;;;;;;3.45;1.48;;;9.10;99.90;;;;;;8360821;28;20485;-82
2024/04/05 02:49:19;;;;;;;2.15;1.23;;;9.10;99.90;;;;;;8362770;28;20032;-83
2024/04/05 02:53:19;;;;;;;5.68;2.08;;;9.10;99.90;;;;;;8349668;28;20037;-82
2024/04/05 02:57:20;;;;;;;3.80;1.55;;;9.20;99.90;;;;;;8349683;28;20098;-82
2024/04/05 03:01:20;;;;;;;7.88;2.08;;;9.20;99.90;;;;;;8351780;28;20032;-82
2024/04/05 03:05:21;;;;;;;4.57;1.50;;;9.20;99.90;;;;;;8353988;28;20021;-81
2024/04/05 03:09:21;;;;;;;3.00;1.33;;;9.20;99.90;;;;;;8349398;28;20037;-82
2024/04/05 03:13:22;;;;;;;1.83;1.33;;;9.20;99.90;;;;;;8349659;28;20384;-82
2024/04/05 03:17:23;;;;;;;1.90;1.20;;;9.20;99.90;;;;;;8363062;28;20252;-82
2024/04/05 03:21:23;;;;;;;7.07;2.10;;;9.20;99.90;;;;;;8362445;28;20543;-82
2024/04/05 03:25:24;;;;;;;5.43;1.92;;;9.20;99.90;;;;;;8357931;28;20033;-83
2024/04/05 03:29:24;;;;;;;2.72;1.33;;;9.10;99.90;;;;;;8358740;28;20527;-83
2024/04/05 03:33:25;;;;;;;2.55;1.70;;;9.10;99.90;;;;;;8351178;28;20025;-83
2024/04/05 03:37:25;;;;;;;3.63;2.00;;;9.20;99.90;;;;;;8360133;28;20517;-83
2024/04/05 03:41:27;;;;;;;2.20;1.58;;;9.10;99.90;;;;;;8360861;28;20032;-83
2024/04/05 03:45:28;;;;;;;3.65;1.60;;;9.10;99.90;;;;;;8352373;28;20037;-83
2024/04/05 03:49:28;;;;;;;8.15;2.70;;;9.10;99.90;;;;;;8351872;28;20052;-84
2024/04/05 03:53:29;;;;;;;6.15;2.20;;;9.10;99.90;;;;;;8354721;28;20044;-81
2024/04/05 03:57:29;;;;;;;2.25;1.30;;;9.10;99.90;;;;;;8364797;28;20028;-83
2024/04/05 04:01:30;;;;;;;2.13;1.40;;;9.10;99.90;;;;;;8361749;28;20070;-82
2024/04/05 04:05:31;;;;;;;1.33;1.17;;;9.20;99.90;;;;;;8357549;28;20032;-82
2024/04/05 04:09:32;;;;;;;1.63;1.30;;;9.20;99.90;;;;;;8363546;28;20123;-82
2024/04/05 04:13:33;;;;;;;3.15;1.50;;;9.20;99.90;;;;;;8363431;28;20493;-82
2024/04/05 04:17:33;;;;;;;1.92;1.35;;;9.10;99.90;;;;;;8361654;28;20044;-82
2024/04/05 04:21:35;;;;;;;4.85;1.80;;;9.10;99.90;;;;;;8359056;28;20386;-81
2024/04/05 04:25:35;;;;;;;2.92;1.20;;;9.10;99.90;;;;;;8353471;28;20018;-80
2024/04/05 04:29:36;;;;;;;1.50;1.30;;;9.10;99.90;;;;;;8366970;28;20024;-81
2024/04/05 04:33:36;;;;;;;2.33;1.10;;;9.10;99.90;;;;;;8365126;28;20492;-82
2024/04/05 04:37:37;;;;;;;2.50;1.20;;;9.10;99.90;;;;;;8361666;28;20032;-81
2024/04/05 04:41:37;;;;;;;2.42;1.30;;;9.00;99.90;;;;;;8371839;28;20490;-81
2024/04/05 04:45:38;;;;;;;2.92;1.45;;;8.90;99.90;;;;;;8356998;28;20025;-81
2024/04/05 04:49:39;;;;;;;2.10;1.73;;;9.10;99.90;;;;;;8360172;28;20025;-81
2024/04/05 04:53:39;;;;;;;3.40;1.73;;;9.20;99.90;;;;;;8359947;28;20032;-81
2024/04/05 04:57:40;;;;;;;2.60;1.40;;;9.30;99.90;;;;;;8364518;28;20033;-81
2024/04/05 05:01:41;;;;;;;4.70;2.17;;;9.30;99.90;;;;;;8356493;28;20021;-81
2024/04/05 05:05:42;;;;;;;4.55;3.20;;;9.20;99.90;;;;;;8354604;28;20028;-81
2024/04/05 05:09:43;;;;;;;5.13;3.40;;;9.10;99.90;;;;;;8359078;28;20084;-81
2024/04/05 05:13:43;;;;;;;5.65;3.38;;;9.10;99.90;;;;;;8365817;28;20028;-81
2024/04/05 05:17:44;;;;;;;5.10;2.30;;;8.90;99.90;;;;;;8362187;28;20044;-81
2024/04/05 05:21:44;;;;;;;5.30;2.70;;;8.60;99.90;;;;;;8367471;28;20025;-81
2024/04/05 05:25:45;;;;;;;4.32;2.65;;;8.50;99.90;;;;;;8373034;28;20040;-81
2024/04/05 05:29:46;;;;;;;4.50;2.47;;;8.50;99.90;;;;;;8364051;28;20827;-81
2024/04/05 05:33:47;;;;;;;3.25;2.08;;;8.50;99.90;;;;;;8364467;28;20033;-82
2024/04/05 05:37:47;;;;;;;9.10;2.08;;;8.50;99.90;;;;;;8370018;28;20374;-81
2024/04/05 05:41:48;;;;;;;5.75;2.30;;;8.50;99.90;;;;;;8358630;28;20489;-81
2024/04/05 05:45:48;;;;;;;5.70;2.63;;;8.50;99.90;;;;;;8366672;28;20031;-81
2024/04/05 05:49:52;;;;;;;4.10;2.13;;;8.80;99.90;;;;;;8347345;28;20032;-81
2024/04/05 05:53:52;;;;;;;3.35;1.85;;;8.80;99.90;;;;;;8351781;28;20091;-82
2024/04/05 05:57:53;;;;;;;2.30;1.60;;;8.90;99.90;;;;;;8360752;28;20022;-81
2024/04/05 06:01:53;;;;;;;3.63;1.70;;;9.00;99.90;;;;;;8357620;28;20049;-82
2024/04/05 06:05:54;;;;;;;4.80;1.98;;;9.00;99.90;;;;;;8353391;28;20040;-82
2024/04/05 06:09:55;;;;;;;2.33;1.80;;;9.00;99.90;;;;;;8356860;28;20029;-82
2024/04/05 06:13:55;;;;;;;3.72;1.88;;;8.80;99.90;;;;;;8355979;28;20078;-82
2024/04/05 06:17:56;;;;;;;3.50;1.70;;;8.70;99.90;;;;;;8358867;28;20052;-82
2024/04/05 06:21:57;;;;;;;2.00;1.70;;;8.70;99.90;;;;;;8355902;28;20493;-82
2024/04/05 06:25:58;;;;;;;3.17;1.98;;;8.70;99.90;;;;;;8355916;28;20035;-82
2024/04/05 06:29:59;;;;;;;4.30;1.83;;;8.80;99.90;;;;;;8361035;28;20033;-82
2024/04/05 06:33:59;;;;;;;10.98;4.40;;;9.00;99.90;;;;;;8357321;28;20039;-83
2024/04/05 06:38:00;;;;;;;3.45;1.92;;;9.50;99.90;;;;;;8357537;28;20024;-82
2024/04/05 06:42:01;;;;;;;2.33;1.52;;;10.10;99.90;;;;;;8348366;28;20067;-82
2024/04/05 06:46:07;;;;;;;2.28;1.48;;;10.50;99.90;;;;;;8354825;28;20116;-82
2024/04/05 06:50:08;;;;;;;3.58;1.73;;;10.90;99.90;;;;;;8361679;28;20131;-82
2024/04/05 06:54:09;;;;;;;1.55;1.20;;;11.20;99.90;;;;;;8354922;28;20029;-83
2024/04/05 06:58:11;;;;;;;1.92;1.30;;;11.40;99.90;;;;;;8361673;28;20024;-83
2024/04/05 07:02:12;;;;;;;1.15;1.00;;;11.40;99.90;;;;;;8364201;28;20051;-83
2024/04/05 07:06:13;;;;;;;1.30;0.93;;;11.50;99.90;;;;;;8350780;28;20036;-82
2024/04/05 07:10:14;;;;;;;2.42;1.17;;;11.60;99.90;;;;;;8373413;28;20027;-83
2024/04/05 07:14:19;;;;;;;2.42;1.10;;;12.20;99.90;;;;;;8352074;28;20033;-82
2024/04/05 07:18:24;;;;;;;1.83;1.00;;;12.60;99.90;;;;;;8354297;28;20027;-82
2024/04/05 07:22:25;;;;;;;2.50;1.00;;;13.30;99.90;;;;;;8352394;28;20088;-83
2024/04/05 07:26:26;;;;;;;1.95;0.65;;;13.60;99.90;;;;;;8357024;28;20115;-82
2024/04/05 07:30:27;;;;;;;0.93;0.47;;;14.10;99.90;;;;;;8347350;28;20036;-83
2024/04/05 07:34:29;;;;;;;0.75;0.60;;;14.60;99.90;;;;;;8352219;28;20021;-83
2024/04/05 07:38:30;;;;;;;3.40;0.90;;;15.50;99.90;;;;;;8350626;28;20024;-82
2024/04/05 07:42:30;;;;;;;0.70;0.60;;;16.10;99.90;;;;;;8356707;28;20021;-83
2024/04/05 07:46:31;;;;;;;0.93;0.70;;;16.30;99.90;;;;;;8362994;28;20021;-83
2024/04/05 07:50:31;;;;;;;1.13;0.93;;;16.50;99.90;;;;;;8351786;28;20112;-83
2024/04/05 07:54:32;;;;;;;2.72;0.90;;;16.80;99.90;;;;;;8359195;28;20020;-83
2024/04/05 07:58:33;;;;;;;0.70;0.40;;;17.20;99.90;;;;;;8356665;28;20025;-83
2024/04/05 08:02:35;;;;;;;1.55;0.70;;;17.10;99.90;;;;;;8355801;28;20500;-83
2024/04/05 08:06:36;;;;;;;1.23;0.70;;;17.40;99.90;;;;;;8348557;28;20049;-83
2024/04/05 08:10:36;;;;;;;0.70;0.50;;;17.50;99.90;;;;;;8347175;28;20444;-83
2024/04/05 08:14:38;;;;;;;1.42;0.60;;;17.80;99.90;;;;;;8364006;28;20158;-83
2024/04/05 08:18:39;;;;;;;0.80;0.52;;;18.00;99.90;;;;;;8353553;28;20024;-84
2024/04/05 08:22:39;;;;;;;1.13;0.50;;;17.90;99.90;;;;;;8361355;28;20066;-83
2024/04/05 08:26:40;;;;;;;0.35;0.25;;;17.70;99.90;;;;;;8352534;28;20378;-84
2024/04/05 08:30:40;;;;;;;1.13;0.55;;;17.90;99.90;;;;;;8353086;28;20021;-84
2024/04/05 08:34:44;;;;;;;2.92;0.43;;;18.30;99.90;;;;;;8363210;28;20032;-83
2024/04/05 08:38:46;;;;;;;2.05;0.35;;;18.40;99.90;;;;;;8367935;28;20029;-83
2024/04/05 08:42:51;;;;;;;0.73;0.40;;;18.40;99.90;;;;;;8355389;28;20037;-83
2024/04/05 08:46:52;;;;;;;1.23;0.50;;;18.60;99.90;;;;;;8353259;28;20033;-83
2024/04/05 08:50:54;;;;;;;1.40;0.50;;;19.40;99.90;;;;;;8353529;28;20391;-84
2024/04/05 08:54:56;;;;;;;0.73;0.43;;;20.10;99.90;;;;;;8364431;28;20033;-83
2024/04/05 08:59:01;;;;;;;1.00;0.50;;;20.10;99.90;;;;;;8355463;28;20036;-83
2024/04/05 09:03:04;;;;;;;0.80;0.50;;;20.30;99.90;;;;;;8355476;28;20017;-83
2024/04/05 09:07:04;;;;;;;0.63;0.52;;;20.20;99.90;;;;;;8370125;28;20037;-83
2024/04/05 09:11:06;;;;;;;0.35;0.30;;;20.80;99.90;;;;;;8359656;28;20039;-84
2024/04/05 09:15:06;;;;;;;0.60;0.40;;;21.10;99.90;;;;;;8364242;28;20413;-84
2024/04/05 09:19:11;;;;;;;1.23;0.50;;;20.50;99.90;;;;;;8363759;28;20017;-83
2024/04/05 09:23:12;;;;;;;1.33;0.47;;;20.20;99.90;;;;;;8362962;28;20020;-84
2024/04/05 09:27:17;;;;;;;1.45;0.40;;;20.40;99.90;;;;;;8352568;28;20092;-84
2024/04/05 09:31:19;;;;;;;0.43;0.30;;;20.50;99.90;;;;;;8365242;28;20021;-84
2024/04/05 09:35:22;;;;;;;0.82;0.40;;;20.60;99.90;;;;;;8360859;28;20471;-84
2024/04/05 09:39:23;;;;;;;0.95;0.40;;;21.10;99.90;;;;;;8358221;28;20067;-83
2024/04/05 09:43:24;;;;;;;1.27;0.20;;;21.30;99.90;;;;;;8358503;28;20057;-84
2024/04/05 09:47:27;;;;;;;0.35;0.30;;;21.30;99.90;;;;;;8363899;28;20025;-83
2024/04/05 09:51:48;;;;;;;1.30;0.40;;;21.80;99.90;;;;;;8356699;28;20030;-84
2024/04/05 09:55:52;;;;;;;0.38;0.30;;;22.20;99.90;;;;;;8357741;28;20039;-85
2024/04/05 09:59:55;;;;;;;1.58;0.43;;;22.50;99.90;;;;;;8356665;28;20017;-84
2024/04/05 10:03:56;;;;;;;1.10;0.52;;;22.60;99.90;;;;;;8366473;28;20025;-87
2024/04/05 10:08:12;;;;;;;1.20;0.45;;;22.60;99.90;;;;;;8359709;28;20392;-86
2024/04/05 10:12:20;;;;;;;1.17;0.52;;;22.80;99.90;;;;;;8353167;28;20112;-84
2024/04/05 10:16:23;;;;;;;0.57;0.40;;;22.90;99.90;;;;;;8363682;28;20044;-85
2024/04/05 10:20:24;;;;;;;0.35;0.22;;;23.10;99.90;;;;;;8359604;28;20025;-86
2024/04/05 10:24:25;;;;;;;0.52;0.45;;;23.30;99.90;;;;;;8358769;28;20037;-84
2024/04/05 10:28:26;;;;;;;0.40;0.35;;;23.60;97.90;;;;;;8366219;28;20040;-84
2024/04/05 10:32:28;;;;;;;0.30;0.30;;;24.00;97.20;;;;;;8357610;28;20078;-85
2024/04/05 10:36:32;;;;;;;0.32;0.30;;;24.20;95.50;;;;;;8355307;28;20029;-84
2024/04/05 10:40:33;;;;;;;0.30;0.28;;;24.50;95.10;;;;;;8359123;28;20049;-83
2024/04/05 10:44:34;;;;;;;0.30;0.30;;;24.90;94.20;;;;;;8358891;28;20036;-85
2024/04/05 10:48:34;;;;;;;0.38;0.30;;;25.10;94.70;;;;;;8352911;28;20083;-84
2024/04/05 10:52:36;;;;;;;0.40;0.20;;;25.00;93.20;;;;;;8352978;28;20582;-85
2024/04/05 10:56:41;;;;;;;0.73;0.30;;;25.50;90.90;;;;;;8357955;28;20029;-84
2024/04/05 11:00:41;;;;;;;0.30;0.30;;;25.10;92.00;;;;;;8356787;28;20090;-85
2024/04/05 11:04:42;;;;;;;0.50;0.30;;;25.40;91.20;;;;;;8361089;28;20032;-85
2024/04/05 11:08:51;;;;;;;0.35;0.35;;;25.90;91.10;;;;;;8353334;28;20033;-85
2024/04/05 11:12:52;;;;;;;0.13;0.13;;;26.30;87.30;;;;;;8370093;28;20036;-85
2024/04/05 11:17:01;;;;;;;0.28;0.20;;;27.00;81.50;;;;;;8357404;28;20032;-85
2024/04/05 11:21:03;;;;;;;0.53;0.20;;;27.20;80.80;;;;;;8357533;28;20445;-84
2024/04/05 11:25:04;;;;;;;0.38;0.30;;;26.50;75.40;;;;;;8361963;28;20272;-85
2024/04/05 11:29:05;;;;;;;0.60;0.20;;;25.20;75.00;;;;;;8370900;28;20029;-84
2024/04/05 11:33:07;;;;;;;1.13;0.22;;;24.80;79.00;;;;;;8362692;28;20456;-85
2024/04/05 11:37:07;;;;;;;0.30;0.30;;;24.90;73.60;;;;;;8354353;28;20053;-86
2024/04/05 11:41:08;;;;;;;0.70;0.38;;;26.10;80.50;;;;;;8358867;28;20029;-85
2024/04/05 11:45:11;;;;;;;0.20;0.20;;;26.00;75.70;;;;;;8365422;28;20033;-83
2024/04/05 11:49:12;;;;;;;0.57;0.30;;;26.60;78.30;;;;;;8360103;28;20472;-86
2024/04/05 11:53:13;;;;;;;0.50;0.30;;;26.50;74.70;;;;;;8362850;28;20025;-87
2024/04/05 11:57:14;;;;;;;0.38;0.35;;;25.70;73.10;;;;;;8363753;28;20033;-86
2024/04/05 12:01:14;;;;;;;0.93;0.38;;;26.80;73.10;;;;;;8362014;28;20079;-85
2024/04/05 12:05:16;;;;;;;0.32;0.20;;;27.50;72.00;;;;;;8364530;28;20033;-85
2024/04/05 12:09:17;;;;;;;0.52;0.40;;;28.30;71.70;;;;;;8379793;28;20017;-87
2024/04/05 12:13:17;;;;;;;0.30;0.30;;;29.40;65.70;;;;;;8375542;28;20036;-85
2024/04/05 12:17:18;;;;;;;0.40;0.30;;;28.90;67.40;;;;;;8374087;28;20481;-85
2024/04/05 12:21:19;;;;;;;0.40;0.22;;;27.60;67.10;;;;;;8370381;28;20443;-84
2024/04/05 12:25:22;;;;;;;0.93;0.52;;;26.70;73.50;;;;;;8369272;28;20074;-83
2024/04/05 12:29:23;;;;;;;1.45;0.50;;;26.70;73.50;;;;;;8370571;28;20048;-84
2024/04/05 12:33:23;;;;;;;1.38;0.43;;;27.80;69.80;;;;;;8370756;28;20013;-85
2024/04/05 12:37:25;;;;;;;0.47;0.35;;;27.60;70.00;;;;;;8369420;28;20025;-85
2024/04/05 12:41:26;;;;;;;0.55;0.35;;;27.80;65.00;;;;;;8365665;28;20029;-86
2024/04/05 12:45:26;;;;;;;2.75;0.40;;;27.60;68.80;;;;;;8365358;28;20066;-84
2024/04/05 12:49:27;;;;;;;0.35;0.30;;;28.00;67.90;;;;;;8360556;28;20032;-83
2024/04/05 12:53:29;;;;;;;0.50;0.40;;;29.60;63.30;;;;;;8367107;28;20374;-85
2024/04/05 12:57:29;;;;;;;0.93;0.38;;;30.00;63.00;;;;;;8366539;28;20035;-85
2024/04/05 13:01:30;;;;;;;0.40;0.32;;;31.30;60.10;;;;;;8368288;28;20162;-84
2024/04/05 13:05:30;;;;;;;0.82;0.30;;;31.40;55.10;;;;;;8361588;28;20021;-84
2024/04/05 13:09:31;;;;;;;0.20;0.20;;;31.30;56.80;;;;;;8362409;28;20485;-84
2024/04/05 13:13:32;;;;;;;1.50;0.40;;;29.20;59.90;;;;;;8365268;28;20039;-85
2024/04/05 13:17:33;;;;;;;0.47;0.38;;;26.70;62.20;;;;;;8362100;28;20112;-84
2024/04/05 13:21:33;;;;;;;0.30;0.30;;;26.30;63.50;;;;;;8356928;28;20212;-87
2024/04/05 13:25:34;;;;;;;0.70;0.40;;;26.20;63.20;;;;;;8367803;28;20021;-84
2024/04/05 13:29:34;;;;;;;0.47;0.47;;;26.40;65.00;;;;;;8354372;28;20029;-84
2024/04/05 13:33:38;;;;;;;0.55;0.43;;;26.70;65.40;;;;;;8356090;28;20475;-86
2024/04/05 13:37:39;;;;;;;0.40;0.40;;;25.80;66.20;;;;;;8369074;28;20417;-84
2024/04/05 13:41:40;;;;;;;0.75;0.43;;;24.60;71.50;;;;;;8365360;28;20031;-84
2024/04/05 13:45:41;;;;;;;1.20;0.60;;;24.00;74.90;;;;;;8367470;28;20033;-84
2024/04/05 13:49:41;;;;;;;1.38;0.60;;;23.80;78.60;;;;;;8368576;28;20025;-85
2024/04/05 13:53:42;;;;;;;0.22;0.20;;;24.40;74.00;;;;;;8364927;28;20030;-83
2024/04/05 13:57:43;;;;;;;0.50;0.50;;;25.70;72.20;;;;;;8346205;28;20032;-86
2024/04/05 14:01:44;;;;;;;0.52;0.50;;;26.70;70.80;;;;;;8355989;28;20112;-85
2024/04/05 14:05:45;;;;;;;0.85;0.40;;;28.40;68.10;;;;;;8356416;28;20120;-84
2024/04/05 14:09:46;;;;;;;0.63;0.47;;;29.40;61.40;;;;;;8361748;28;20078;-85
2024/04/05 14:13:46;;;;;;;0.30;0.30;;;30.90;59.70;;;;;;8358562;28;20029;-85
2024/04/05 14:17:47;;;;;;;2.97;0.70;;;30.10;61.10;;;;;;8364962;28;20039;-86
2024/04/05 14:21:47;;;;;;;0.73;0.40;;;28.50;67.00;;;;;;8357275;28;20061;-88
2024/04/05 14:25:53;;;;;;;0.60;0.50;;;27.20;70.50;;;;;;8356251;28;20033;-84
2024/04/05 14:29:54;;;;;;;1.02;0.73;;;26.00;75.50;;;;;;8350827;28;20025;-85
2024/04/05 14:33:55;;;;;;;3.67;0.60;;;25.40;74.40;;;;;;8352046;28;20037;-85
2024/04/05 14:37:55;;;;;;;0.52;0.50;;;25.10;73.50;;;;;;8350021;28;20035;-83
2024/04/05 14:41:56;;;;;;;0.70;0.50;;;24.30;76.60;;;;;;8361282;28;20041;-85
2024/04/05 14:46:00;;;;;;;1.65;0.60;;;23.70;79.20;;;;;;8363057;28;20025;-86
2024/04/05 14:50:01;;;;;;;1.00;0.60;;;23.20;81.10;;;;;;8357490;28;20029;-86
2024/04/05 14:54:02;;;;;;;1.52;0.70;;;22.70;82.20;;;;;;8356186;28;20420;-88
2024/04/05 14:58:02;;;;;;;3.80;0.60;;;22.60;82.80;;;;;;8361485;28;20021;-88
2024/04/05 15:02:19;;;;;;;0.75;0.60;;;22.30;84.30;;;;;;8354518;28;20029;-88
2024/04/05 15:06:33;;;;;;;0.65;0.60;;;22.30;84.40;;;;;;8347585;28;20032;-89
2024/04/05 15:10:37;;;;;;;1.20;0.68;;;22.10;85.00;;;;;;8361584;28;20065;-88
2024/04/05 15:14:57;;;;;;;1.02;0.70;;;22.00;86.00;;;;;;8356496;28;20374;-89
2024/04/05 15:18:58;;;;;;;1.17;0.57;;;21.70;83.30;;;;;;8358348;28;20021;-89
2024/04/05 15:23:03;;;;;;;0.70;0.50;;;21.70;85.50;;;;;;8357897;28;20021;-90
2024/04/05 15:32:16;;;;;;;0.88;0.40;;;21.70;86.30;;;;;;8359654;28;20060;-90
2024/04/05 15:38:01;;;;;;;0.75;0.40;;;21.50;87.00;;;;;;8342701;28;20136;-90
2024/04/05 15:47:23;;;;;;;1.92;0.50;;;21.10;89.00;;;;;;8342401;28;20401;-88
2024/04/05 15:58:00;;;;;;;1.02;0.57;;;20.90;88.40;;;;;;8252147;28;20042;-87
2024/04/05 16:43:30;;;;;;;;;;;;;;;;;;;;;
2024/04/05 17:40:05;;;;;;;0.70;0.70;;;17.70;99.90;;;;;;8297832;28;20105;-87
2024/04/05 17:50:14;;;;;;;1.33;0.77;;;17.30;99.90;;;;;;8300298;28;20041;-87
2024/04/05 18:10:18;;;;;;;1.75;1.00;;;16.40;99.90;;;;;;8366794;28;20090;-87
2024/04/05 18:15:27;;;;;;;;;;;;;;;;;;;;;
2024/04/05 19:36:01;;;;;;;2.92;1.30;;;14.80;99.90;;;;;;8428986;28;20044;-86
2024/04/05 19:41:03;;;;;;;;;;;;;;;;;;;;;
2024/04/05 19:51:50;;;;;;;;;;;;;;;;;;;;;
2024/04/05 20:11:54;;;;;;;;;;;;;;;;;;;;;
2024/04/05 20:36:00;;;;;;;4.35;2.78;;;13.80;99.90;;;;;;8201134;28;20138;-87
2024/04/05 22:57:18;;;;;;;;;;;;;;;;;;;;;
2024/04/05 23:48:14;;;;;;;2.75;1.30;;;12.80;99.90;;;;;;8129135;29;20032;-87
